sensor_id;sensor_type;location;lat;lon;timestamp;P1;durP1;ratioP1;P2;durP2;ratioP2
23044;SDS011;11690;51.716;23.066;2023-02-01T00:01:21;18.33;;;9.90;;
23044;SDS011;11690;51.716;23.066;2023-02-01T00:03:48;21.03;;;10.33;;
23044;SDS011;11690;51.716;23.066;2023-02-01T00:06:15;18.00;;;10.03;;
23044;SDS011;11690;51.716;23.066;2023-02-01T00:08:42;17.03;;;10.03;;
23044;SDS011;11690;51.716;23.066;2023-02-01T00:11:10;21.40;;;9.00;;
23044;SDS011;11690;51.716;23.066;2023-02-01T00:13:39;21.30;;;9.87;;
23044;SDS011;11690;51.716;23.066;2023-02-01T00:18:36;21.93;;;9.97;;
23044;SDS011;11690;51.716;23.066;2023-02-01T00:21:03;23.83;;;12.63;;
23044;SDS011;11690;51.716;23.066;2023-02-01T00:23:35;20.30;;;11.07;;
23044;SDS011;11690;51.716;23.066;2023-02-01T00:26:03;24.07;;;11.40;;
23044;SDS011;11690;51.716;23.066;2023-02-01T00:28:33;22.40;;;11.70;;
23044;SDS011;11690;51.716;23.066;2023-02-01T00:31:01;18.13;;;10.10;;
23044;SDS011;11690;51.716;23.066;2023-02-01T00:33:30;19.43;;;9.30;;
23044;SDS011;11690;51.716;23.066;2023-02-01T00:36:01;20.67;;;10.23;;
23044;SDS011;11690;51.716;23.066;2023-02-01T00:38:33;16.93;;;9.40;;
23044;SDS011;11690;51.716;23.066;2023-02-01T00:41:03;18.73;;;9.67;;
23044;SDS011;11690;51.716;23.066;2023-02-01T00:43:40;17.30;;;9.40;;
23044;SDS011;11690;51.716;23.066;2023-02-01T00:46:08;15.70;;;9.10;;
23044;SDS011;11690;51.716;23.066;2023-02-01T00:48:35;24.00;;;12.83;;
23044;SDS011;11690;51.716;23.066;2023-02-01T00:51:04;16.43;;;9.20;;
23044;SDS011;11690;51.716;23.066;2023-02-01T00:53:36;18.27;;;11.37;;
23044;SDS011;11690;51.716;23.066;2023-02-01T00:56:04;18.10;;;10.37;;
23044;SDS011;11690;51.716;23.066;2023-02-01T00:58:32;19.33;;;9.87;;
23044;SDS011;11690;51.716;23.066;2023-02-01T01:03:34;14.30;;;8.97;;
23044;SDS011;11690;51.716;23.066;2023-02-01T01:06:05;15.33;;;9.43;;
23044;SDS011;11690;51.716;23.066;2023-02-01T01:08:34;13.50;;;8.63;;
23044;SDS011;11690;51.716;23.066;2023-02-01T01:11:09;16.87;;;9.60;;
23044;SDS011;11690;51.716;23.066;2023-02-01T01:13:38;18.73;;;9.90;;
23044;SDS011;11690;51.716;23.066;2023-02-01T01:16:06;18.30;;;10.53;;
23044;SDS011;11690;51.716;23.066;2023-02-01T01:18:34;15.03;;;9.50;;
23044;SDS011;11690;51.716;23.066;2023-02-01T01:21:03;19.87;;;10.63;;
23044;SDS011;11690;51.716;23.066;2023-02-01T01:23:31;19.47;;;14.30;;
23044;SDS011;11690;51.716;23.066;2023-02-01T01:25:59;18.20;;;10.57;;
23044;SDS011;11690;51.716;23.066;2023-02-01T01:28:26;17.70;;;10.30;;
23044;SDS011;11690;51.716;23.066;2023-02-01T01:30:53;18.07;;;10.33;;
23044;SDS011;11690;51.716;23.066;2023-02-01T01:33:20;15.97;;;9.77;;
23044;SDS011;11690;51.716;23.066;2023-02-01T01:35:48;16.77;;;10.57;;
23044;SDS011;11690;51.716;23.066;2023-02-01T01:38:15;19.20;;;10.07;;
23044;SDS011;11690;51.716;23.066;2023-02-01T01:40:46;16.17;;;10.37;;
23044;SDS011;11690;51.716;23.066;2023-02-01T01:43:14;19.73;;;11.20;;
23044;SDS011;11690;51.716;23.066;2023-02-01T01:45:43;19.80;;;11.43;;
23044;SDS011;11690;51.716;23.066;2023-02-01T01:48:14;16.53;;;10.23;;
23044;SDS011;11690;51.716;23.066;2023-02-01T01:51:06;28.40;;;18.53;;
23044;SDS011;11690;51.716;23.066;2023-02-01T01:53:35;20.63;;;12.23;;
23044;SDS011;11690;51.716;23.066;2023-02-01T01:56:05;18.67;;;10.77;;
23044;SDS011;11690;51.716;23.066;2023-02-01T01:58:33;18.53;;;10.77;;
23044;SDS011;11690;51.716;23.066;2023-02-01T02:01:00;14.77;;;9.83;;
23044;SDS011;11690;51.716;23.066;2023-02-01T02:03:32;15.83;;;9.00;;
23044;SDS011;11690;51.716;23.066;2023-02-01T02:06:02;15.47;;;9.67;;
23044;SDS011;11690;51.716;23.066;2023-02-01T02:08:30;16.27;;;9.67;;
23044;SDS011;11690;51.716;23.066;2023-02-01T02:10:58;13.93;;;9.40;;
23044;SDS011;11690;51.716;23.066;2023-02-01T02:13:38;16.07;;;9.67;;
23044;SDS011;11690;51.716;23.066;2023-02-01T02:19:08;26.30;;;16.00;;
23044;SDS011;11690;51.716;23.066;2023-02-01T02:27:03;11.10;;;7.83;;
23044;SDS011;11690;51.716;23.066;2023-02-01T02:38:07;12.20;;;8.60;;
23044;SDS011;11690;51.716;23.066;2023-02-01T02:43:15;14.07;;;9.23;;
23044;SDS011;11690;51.716;23.066;2023-02-01T02:46:25;11.70;;;8.43;;
23044;SDS011;11690;51.716;23.066;2023-02-01T02:49:19;10.57;;;7.40;;
23044;SDS011;11690;51.716;23.066;2023-02-01T02:52:15;12.87;;;8.60;;
23044;SDS011;11690;51.716;23.066;2023-02-01T02:55:03;13.70;;;8.10;;
23044;SDS011;11690;51.716;23.066;2023-02-01T02:57:37;14.20;;;7.70;;
23044;SDS011;11690;51.716;23.066;2023-02-01T03:00:27;15.57;;;8.93;;
23044;SDS011;11690;51.716;23.066;2023-02-01T03:03:16;16.47;;;9.40;;
23044;SDS011;11690;51.716;23.066;2023-02-01T03:06:03;23.83;;;17.50;;
23044;SDS011;11690;51.716;23.066;2023-02-01T03:08:32;18.70;;;10.23;;
23044;SDS011;11690;51.716;23.066;2023-02-01T03:13:54;11.00;;;6.80;;
23044;SDS011;11690;51.716;23.066;2023-02-01T03:16:26;11.97;;;7.00;;
23044;SDS011;11690;51.716;23.066;2023-02-01T03:24:00;14.27;;;7.53;;
23044;SDS011;11690;51.716;23.066;2023-02-01T03:26:30;25.37;;;12.53;;
23044;SDS011;11690;51.716;23.066;2023-02-01T03:29:00;9.67;;;6.23;;
23044;SDS011;11690;51.716;23.066;2023-02-01T03:31:33;10.60;;;5.57;;
23044;SDS011;11690;51.716;23.066;2023-02-01T03:34:00;8.10;;;5.47;;
23044;SDS011;11690;51.716;23.066;2023-02-01T03:36:30;8.30;;;5.40;;
23044;SDS011;11690;51.716;23.066;2023-02-01T03:39:03;7.50;;;4.87;;
23044;SDS011;11690;51.716;23.066;2023-02-01T03:44:15;9.43;;;4.60;;
23044;SDS011;11690;51.716;23.066;2023-02-01T03:46:46;12.67;;;6.63;;
23044;SDS011;11690;51.716;23.066;2023-02-01T03:49:16;7.53;;;4.73;;
23044;SDS011;11690;51.716;23.066;2023-02-01T03:51:47;6.13;;;4.33;;
23044;SDS011;11690;51.716;23.066;2023-02-01T03:54:15;10.97;;;6.30;;
23044;SDS011;11690;51.716;23.066;2023-02-01T03:56:44;14.83;;;8.07;;
23044;SDS011;11690;51.716;23.066;2023-02-01T03:59:14;9.53;;;4.50;;
23044;SDS011;11690;51.716;23.066;2023-02-01T04:01:41;10.60;;;4.33;;
23044;SDS011;11690;51.716;23.066;2023-02-01T04:04:08;8.73;;;4.30;;
23044;SDS011;11690;51.716;23.066;2023-02-01T04:06:37;8.33;;;3.97;;
23044;SDS011;11690;51.716;23.066;2023-02-01T04:09:05;9.33;;;4.50;;
23044;SDS011;11690;51.716;23.066;2023-02-01T04:11:32;10.07;;;4.23;;
23044;SDS011;11690;51.716;23.066;2023-02-01T04:13:59;11.37;;;3.83;;
23044;SDS011;11690;51.716;23.066;2023-02-01T04:16:31;15.57;;;4.87;;
23044;SDS011;11690;51.716;23.066;2023-02-01T04:18:59;8.87;;;3.37;;
23044;SDS011;11690;51.716;23.066;2023-02-01T04:21:27;14.07;;;3.90;;
23044;SDS011;11690;51.716;23.066;2023-02-01T04:23:55;9.33;;;3.70;;
23044;SDS011;11690;51.716;23.066;2023-02-01T04:26:22;11.63;;;3.50;;
23044;SDS011;11690;51.716;23.066;2023-02-01T04:28:49;9.30;;;3.50;;
23044;SDS011;11690;51.716;23.066;2023-02-01T04:31:18;7.87;;;3.33;;
23044;SDS011;11690;51.716;23.066;2023-02-01T04:33:52;10.43;;;3.43;;
23044;SDS011;11690;51.716;23.066;2023-02-01T04:36:20;11.00;;;4.20;;
23044;SDS011;11690;51.716;23.066;2023-02-01T04:38:49;7.10;;;3.57;;
23044;SDS011;11690;51.716;23.066;2023-02-01T04:41:17;12.17;;;3.63;;
23044;SDS011;11690;51.716;23.066;2023-02-01T04:43:46;9.17;;;2.40;;
23044;SDS011;11690;51.716;23.066;2023-02-01T04:46:14;5.87;;;2.83;;
23044;SDS011;11690;51.716;23.066;2023-02-01T04:48:41;9.83;;;3.17;;
23044;SDS011;11690;51.716;23.066;2023-02-01T04:51:09;13.47;;;4.13;;
23044;SDS011;11690;51.716;23.066;2023-02-01T04:53:36;9.90;;;3.90;;
23044;SDS011;11690;51.716;23.066;2023-02-01T04:56:04;12.13;;;3.93;;
23044;SDS011;11690;51.716;23.066;2023-02-01T04:58:31;19.27;;;7.03;;
23044;SDS011;11690;51.716;23.066;2023-02-01T05:00:59;14.07;;;4.00;;
23044;SDS011;11690;51.716;23.066;2023-02-01T05:03:26;11.77;;;3.60;;
23044;SDS011;11690;51.716;23.066;2023-02-01T05:05:53;16.60;;;7.17;;
23044;SDS011;11690;51.716;23.066;2023-02-01T05:08:20;17.23;;;5.23;;
23044;SDS011;11690;51.716;23.066;2023-02-01T05:10:49;20.00;;;3.80;;
23044;SDS011;11690;51.716;23.066;2023-02-01T05:13:16;9.43;;;3.77;;
23044;SDS011;11690;51.716;23.066;2023-02-01T05:16:01;12.57;;;3.60;;
23044;SDS011;11690;51.716;23.066;2023-02-01T05:18:29;20.87;;;5.00;;
23044;SDS011;11690;51.716;23.066;2023-02-01T05:20:56;17.33;;;4.13;;
23044;SDS011;11690;51.716;23.066;2023-02-01T05:23:23;13.30;;;3.83;;
23044;SDS011;11690;51.716;23.066;2023-02-01T05:25:50;20.80;;;4.03;;
23044;SDS011;11690;51.716;23.066;2023-02-01T05:28:17;14.80;;;5.13;;
23044;SDS011;11690;51.716;23.066;2023-02-01T05:30:44;16.47;;;8.87;;
23044;SDS011;11690;51.716;23.066;2023-02-01T05:33:12;18.33;;;7.17;;
23044;SDS011;11690;51.716;23.066;2023-02-01T05:35:39;15.30;;;4.27;;
23044;SDS011;11690;51.716;23.066;2023-02-01T05:38:06;11.90;;;3.90;;
23044;SDS011;11690;51.716;23.066;2023-02-01T05:40:33;12.20;;;4.23;;
23044;SDS011;11690;51.716;23.066;2023-02-01T05:43:00;13.17;;;4.03;;
23044;SDS011;11690;51.716;23.066;2023-02-01T05:45:28;12.87;;;4.17;;
23044;SDS011;11690;51.716;23.066;2023-02-01T05:47:55;10.60;;;4.07;;
23044;SDS011;11690;51.716;23.066;2023-02-01T05:50:22;12.60;;;3.63;;
23044;SDS011;11690;51.716;23.066;2023-02-01T05:52:55;15.17;;;6.10;;
23044;SDS011;11690;51.716;23.066;2023-02-01T05:55:23;13.73;;;4.00;;
23044;SDS011;11690;51.716;23.066;2023-02-01T05:57:50;17.30;;;7.33;;
23044;SDS011;11690;51.716;23.066;2023-02-01T06:00:17;17.10;;;6.50;;
23044;SDS011;11690;51.716;23.066;2023-02-01T06:02:47;12.50;;;5.53;;
23044;SDS011;11690;51.716;23.066;2023-02-01T06:05:15;11.80;;;3.87;;
23044;SDS011;11690;51.716;23.066;2023-02-01T06:07:42;16.13;;;3.97;;
23044;SDS011;11690;51.716;23.066;2023-02-01T06:10:10;17.53;;;4.37;;
23044;SDS011;11690;51.716;23.066;2023-02-01T06:12:37;20.90;;;4.10;;
23044;SDS011;11690;51.716;23.066;2023-02-01T06:15:04;12.03;;;3.70;;
23044;SDS011;11690;51.716;23.066;2023-02-01T06:17:32;16.07;;;3.47;;
23044;SDS011;11690;51.716;23.066;2023-02-01T06:19:59;9.67;;;2.80;;
23044;SDS011;11690;51.716;23.066;2023-02-01T06:22:26;17.87;;;3.47;;
23044;SDS011;11690;51.716;23.066;2023-02-01T06:24:53;16.23;;;3.97;;
23044;SDS011;11690;51.716;23.066;2023-02-01T06:27:20;14.60;;;5.70;;
23044;SDS011;11690;51.716;23.066;2023-02-01T06:29:48;13.53;;;4.23;;
23044;SDS011;11690;51.716;23.066;2023-02-01T06:32:15;15.33;;;3.50;;
23044;SDS011;11690;51.716;23.066;2023-02-01T06:34:44;14.33;;;3.23;;
23044;SDS011;11690;51.716;23.066;2023-02-01T06:37:11;14.83;;;3.60;;
23044;SDS011;11690;51.716;23.066;2023-02-01T06:39:38;16.40;;;3.67;;
23044;SDS011;11690;51.716;23.066;2023-02-01T06:42:05;21.17;;;3.37;;
23044;SDS011;11690;51.716;23.066;2023-02-01T06:44:32;13.90;;;3.60;;
23044;SDS011;11690;51.716;23.066;2023-02-01T06:47:00;18.20;;;4.20;;
23044;SDS011;11690;51.716;23.066;2023-02-01T06:49:27;18.10;;;4.87;;
23044;SDS011;11690;51.716;23.066;2023-02-01T06:51:54;16.70;;;3.03;;
23044;SDS011;11690;51.716;23.066;2023-02-01T06:54:21;17.03;;;3.67;;
23044;SDS011;11690;51.716;23.066;2023-02-01T06:56:48;16.17;;;3.50;;
23044;SDS011;11690;51.716;23.066;2023-02-01T06:59:16;16.33;;;3.77;;
23044;SDS011;11690;51.716;23.066;2023-02-01T07:01:43;19.03;;;3.87;;
23044;SDS011;11690;51.716;23.066;2023-02-01T07:04:13;17.63;;;4.50;;
23044;SDS011;11690;51.716;23.066;2023-02-01T07:06:40;35.07;;;8.40;;
23044;SDS011;11690;51.716;23.066;2023-02-01T07:09:08;21.73;;;9.63;;
23044;SDS011;11690;51.716;23.066;2023-02-01T07:11:34;19.83;;;6.23;;
23044;SDS011;11690;51.716;23.066;2023-02-01T07:14:02;16.63;;;3.60;;
23044;SDS011;11690;51.716;23.066;2023-02-01T07:16:29;14.67;;;3.53;;
23044;SDS011;11690;51.716;23.066;2023-02-01T07:18:58;20.40;;;3.20;;
23044;SDS011;11690;51.716;23.066;2023-02-01T07:21:26;12.60;;;3.00;;
23044;SDS011;11690;51.716;23.066;2023-02-01T07:23:54;20.70;;;3.90;;
23044;SDS011;11690;51.716;23.066;2023-02-01T07:26:21;13.63;;;3.47;;
23044;SDS011;11690;51.716;23.066;2023-02-01T07:28:49;16.43;;;4.30;;
23044;SDS011;11690;51.716;23.066;2023-02-01T07:31:17;16.70;;;4.57;;
23044;SDS011;11690;51.716;23.066;2023-02-01T07:33:48;21.80;;;3.60;;
23044;SDS011;11690;51.716;23.066;2023-02-01T07:36:18;15.00;;;3.10;;
23044;SDS011;11690;51.716;23.066;2023-02-01T07:38:46;14.47;;;3.70;;
23044;SDS011;11690;51.716;23.066;2023-02-01T07:41:19;19.90;;;4.73;;
23044;SDS011;11690;51.716;23.066;2023-02-01T07:43:46;15.73;;;3.80;;
23044;SDS011;11690;51.716;23.066;2023-02-01T07:46:13;17.00;;;4.13;;
23044;SDS011;11690;51.716;23.066;2023-02-01T07:48:42;19.07;;;4.73;;
23044;SDS011;11690;51.716;23.066;2023-02-01T07:51:11;19.83;;;4.67;;
23044;SDS011;11690;51.716;23.066;2023-02-01T07:53:40;19.23;;;8.40;;
23044;SDS011;11690;51.716;23.066;2023-02-01T07:56:10;29.83;;;7.83;;
23044;SDS011;11690;51.716;23.066;2023-02-01T07:58:39;20.60;;;4.57;;
23044;SDS011;11690;51.716;23.066;2023-02-01T08:01:12;18.27;;;3.87;;
23044;SDS011;11690;51.716;23.066;2023-02-01T08:03:47;23.10;;;5.57;;
23044;SDS011;11690;51.716;23.066;2023-02-01T08:06:15;22.17;;;4.17;;
23044;SDS011;11690;51.716;23.066;2023-02-01T08:08:42;15.43;;;3.50;;
23044;SDS011;11690;51.716;23.066;2023-02-01T08:11:11;25.53;;;5.10;;
23044;SDS011;11690;51.716;23.066;2023-02-01T08:13:39;16.37;;;4.30;;
23044;SDS011;11690;51.716;23.066;2023-02-01T08:16:07;14.90;;;4.27;;
23044;SDS011;11690;51.716;23.066;2023-02-01T08:18:36;12.50;;;4.00;;
23044;SDS011;11690;51.716;23.066;2023-02-01T08:21:08;16.47;;;4.13;;
23044;SDS011;11690;51.716;23.066;2023-02-01T08:24:07;13.77;;;3.03;;
23044;SDS011;11690;51.716;23.066;2023-02-01T08:26:35;10.60;;;3.20;;
23044;SDS011;11690;51.716;23.066;2023-02-01T08:29:03;13.30;;;3.47;;
23044;SDS011;11690;51.716;23.066;2023-02-01T08:31:31;16.87;;;4.13;;
23044;SDS011;11690;51.716;23.066;2023-02-01T08:34:00;16.30;;;4.23;;
23044;SDS011;11690;51.716;23.066;2023-02-01T08:36:28;13.23;;;3.90;;
23044;SDS011;11690;51.716;23.066;2023-02-01T08:38:56;14.27;;;4.07;;
23044;SDS011;11690;51.716;23.066;2023-02-01T08:41:24;40.07;;;12.20;;
23044;SDS011;11690;51.716;23.066;2023-02-01T08:43:52;18.63;;;3.50;;
23044;SDS011;11690;51.716;23.066;2023-02-01T08:46:21;18.47;;;3.87;;
23044;SDS011;11690;51.716;23.066;2023-02-01T08:48:49;18.83;;;3.37;;
23044;SDS011;11690;51.716;23.066;2023-02-01T08:51:17;17.27;;;4.13;;
23044;SDS011;11690;51.716;23.066;2023-02-01T08:53:46;12.73;;;3.40;;
23044;SDS011;11690;51.716;23.066;2023-02-01T08:56:13;13.17;;;3.70;;
23044;SDS011;11690;51.716;23.066;2023-02-01T08:58:43;22.40;;;4.67;;
23044;SDS011;11690;51.716;23.066;2023-02-01T09:01:11;32.97;;;7.73;;
23044;SDS011;11690;51.716;23.066;2023-02-01T09:03:40;29.87;;;8.67;;
23044;SDS011;11690;51.716;23.066;2023-02-01T09:06:09;16.47;;;6.00;;
23044;SDS011;11690;51.716;23.066;2023-02-01T09:08:38;20.07;;;4.37;;
23044;SDS011;11690;51.716;23.066;2023-02-01T09:11:07;17.13;;;3.63;;
23044;SDS011;11690;51.716;23.066;2023-02-01T09:13:37;14.07;;;3.77;;
23044;SDS011;11690;51.716;23.066;2023-02-01T09:16:04;21.97;;;3.87;;
23044;SDS011;11690;51.716;23.066;2023-02-01T09:18:32;20.93;;;4.37;;
23044;SDS011;11690;51.716;23.066;2023-02-01T09:21:03;15.83;;;4.20;;
23044;SDS011;11690;51.716;23.066;2023-02-01T09:23:34;20.80;;;4.70;;
23044;SDS011;11690;51.716;23.066;2023-02-01T09:26:02;32.13;;;8.17;;
23044;SDS011;11690;51.716;23.066;2023-02-01T09:28:30;16.37;;;4.53;;
23044;SDS011;11690;51.716;23.066;2023-02-01T09:30:58;19.93;;;3.97;;
23044;SDS011;11690;51.716;23.066;2023-02-01T09:33:26;15.87;;;3.43;;
23044;SDS011;11690;51.716;23.066;2023-02-01T09:36:01;12.73;;;4.30;;
23044;SDS011;11690;51.716;23.066;2023-02-01T09:38:30;13.07;;;3.97;;
23044;SDS011;11690;51.716;23.066;2023-02-01T09:41:00;19.57;;;4.90;;
23044;SDS011;11690;51.716;23.066;2023-02-01T09:43:48;13.87;;;3.43;;
23044;SDS011;11690;51.716;23.066;2023-02-01T09:46:23;21.33;;;6.30;;
23044;SDS011;11690;51.716;23.066;2023-02-01T09:48:54;17.43;;;4.23;;
23044;SDS011;11690;51.716;23.066;2023-02-01T09:51:24;19.00;;;5.60;;
23044;SDS011;11690;51.716;23.066;2023-02-01T09:54:02;28.70;;;9.33;;
23044;SDS011;11690;51.716;23.066;2023-02-01T09:56:34;19.57;;;4.60;;
23044;SDS011;11690;51.716;23.066;2023-02-01T09:59:17;17.83;;;4.27;;
23044;SDS011;11690;51.716;23.066;2023-02-01T10:01:48;11.47;;;3.53;;
23044;SDS011;11690;51.716;23.066;2023-02-01T10:04:16;14.30;;;4.30;;
23044;SDS011;11690;51.716;23.066;2023-02-01T10:07:05;19.73;;;4.40;;
23044;SDS011;11690;51.716;23.066;2023-02-01T10:15:13;14.50;;;3.97;;
23044;SDS011;11690;51.716;23.066;2023-02-01T10:20:37;16.77;;;3.80;;
23044;SDS011;11690;51.716;23.066;2023-02-01T10:28:39;24.80;;;4.60;;
23044;SDS011;11690;51.716;23.066;2023-02-01T10:31:08;23.07;;;4.80;;
23044;SDS011;11690;51.716;23.066;2023-02-01T10:33:39;13.90;;;4.20;;
23044;SDS011;11690;51.716;23.066;2023-02-01T10:36:22;24.00;;;9.97;;
23044;SDS011;11690;51.716;23.066;2023-02-01T10:38:50;28.73;;;6.27;;
23044;SDS011;11690;51.716;23.066;2023-02-01T10:41:19;13.23;;;2.90;;
23044;SDS011;11690;51.716;23.066;2023-02-01T10:43:50;12.43;;;3.83;;
23044;SDS011;11690;51.716;23.066;2023-02-01T10:46:25;13.00;;;3.33;;
23044;SDS011;11690;51.716;23.066;2023-02-01T10:48:52;18.97;;;3.83;;
23044;SDS011;11690;51.716;23.066;2023-02-01T10:51:26;12.33;;;3.33;;
23044;SDS011;11690;51.716;23.066;2023-02-01T10:54:05;12.00;;;3.63;;
23044;SDS011;11690;51.716;23.066;2023-02-01T10:56:48;23.17;;;7.23;;
23044;SDS011;11690;51.716;23.066;2023-02-01T10:59:20;15.83;;;3.80;;
23044;SDS011;11690;51.716;23.066;2023-02-01T11:01:57;11.70;;;3.10;;
23044;SDS011;11690;51.716;23.066;2023-02-01T11:04:26;11.17;;;2.93;;
23044;SDS011;11690;51.716;23.066;2023-02-01T11:06:55;17.10;;;4.27;;
23044;SDS011;11690;51.716;23.066;2023-02-01T11:09:40;17.17;;;3.63;;
23044;SDS011;11690;51.716;23.066;2023-02-01T11:15:14;12.20;;;3.70;;
23044;SDS011;11690;51.716;23.066;2023-02-01T11:17:49;12.80;;;3.13;;
23044;SDS011;11690;51.716;23.066;2023-02-01T11:22:59;19.60;;;3.90;;
23044;SDS011;11690;51.716;23.066;2023-02-01T11:25:26;13.70;;;3.83;;
23044;SDS011;11690;51.716;23.066;2023-02-01T11:27:54;17.67;;;3.93;;
23044;SDS011;11690;51.716;23.066;2023-02-01T11:30:25;21.07;;;4.60;;
23044;SDS011;11690;51.716;23.066;2023-02-01T11:32:58;19.97;;;4.20;;
23044;SDS011;11690;51.716;23.066;2023-02-01T11:35:26;15.97;;;5.63;;
23044;SDS011;11690;51.716;23.066;2023-02-01T11:37:56;18.73;;;5.03;;
23044;SDS011;11690;51.716;23.066;2023-02-01T11:40:29;12.90;;;4.23;;
23044;SDS011;11690;51.716;23.066;2023-02-01T11:43:13;17.53;;;3.67;;
23044;SDS011;11690;51.716;23.066;2023-02-01T11:46:03;17.03;;;3.77;;
23044;SDS011;11690;51.716;23.066;2023-02-01T11:48:52;16.53;;;3.63;;
23044;SDS011;11690;51.716;23.066;2023-02-01T12:02:39;17.90;;;4.30;;
23044;SDS011;11690;51.716;23.066;2023-02-01T12:09:01;14.13;;;3.60;;
23044;SDS011;11690;51.716;23.066;2023-02-01T12:29:48;15.53;;;4.07;;
23044;SDS011;11690;51.716;23.066;2023-02-01T12:32:36;19.30;;;4.90;;
23044;SDS011;11690;51.716;23.066;2023-02-01T12:43:27;19.20;;;5.10;;
23044;SDS011;11690;51.716;23.066;2023-02-01T12:46:13;18.90;;;4.40;;
23044;SDS011;11690;51.716;23.066;2023-02-01T12:51:28;19.17;;;5.53;;
23044;SDS011;11690;51.716;23.066;2023-02-01T12:54:23;18.17;;;4.77;;
23044;SDS011;11690;51.716;23.066;2023-02-01T12:56:58;19.47;;;4.83;;
23044;SDS011;11690;51.716;23.066;2023-02-01T13:02:08;18.80;;;6.47;;
23044;SDS011;11690;51.716;23.066;2023-02-01T13:04:55;17.70;;;3.97;;
23044;SDS011;11690;51.716;23.066;2023-02-01T13:07:27;12.77;;;3.43;;
23044;SDS011;11690;51.716;23.066;2023-02-01T13:10:00;16.40;;;4.40;;
23044;SDS011;11690;51.716;23.066;2023-02-01T13:12:36;23.43;;;6.37;;
23044;SDS011;11690;51.716;23.066;2023-02-01T13:17:43;13.33;;;3.70;;
23044;SDS011;11690;51.716;23.066;2023-02-01T13:23:05;18.13;;;4.63;;
23044;SDS011;11690;51.716;23.066;2023-02-01T13:25:47;22.73;;;4.93;;
23044;SDS011;11690;51.716;23.066;2023-02-01T13:28:18;18.87;;;5.00;;
23044;SDS011;11690;51.716;23.066;2023-02-01T13:44:45;18.90;;;4.43;;
23044;SDS011;11690;51.716;23.066;2023-02-01T13:49:43;19.73;;;5.60;;
23044;SDS011;11690;51.716;23.066;2023-02-01T13:57:48;20.13;;;5.60;;
23044;SDS011;11690;51.716;23.066;2023-02-01T14:11:06;25.83;;;6.00;;
23044;SDS011;11690;51.716;23.066;2023-02-01T14:16:43;14.93;;;3.70;;
23044;SDS011;11690;51.716;23.066;2023-02-01T14:19:29;23.20;;;6.37;;
23044;SDS011;11690;51.716;23.066;2023-02-01T14:21:59;17.77;;;6.60;;
23044;SDS011;11690;51.716;23.066;2023-02-01T14:24:41;23.07;;;7.07;;
23044;SDS011;11690;51.716;23.066;2023-02-01T14:27:23;19.23;;;5.63;;
23044;SDS011;11690;51.716;23.066;2023-02-01T14:29:53;13.93;;;4.50;;
23044;SDS011;11690;51.716;23.066;2023-02-01T14:32:25;16.87;;;5.17;;
23044;SDS011;11690;51.716;23.066;2023-02-01T14:38:08;19.47;;;6.07;;
23044;SDS011;11690;51.716;23.066;2023-02-01T14:40:38;25.80;;;5.60;;
23044;SDS011;11690;51.716;23.066;2023-02-01T14:43:07;22.70;;;6.17;;
23044;SDS011;11690;51.716;23.066;2023-02-01T14:45:55;21.53;;;6.57;;
23044;SDS011;11690;51.716;23.066;2023-02-01T14:50:49;17.93;;;5.30;;
23044;SDS011;11690;51.716;23.066;2023-02-01T14:53:17;23.70;;;5.90;;
23044;SDS011;11690;51.716;23.066;2023-02-01T14:58:38;18.17;;;5.87;;
23044;SDS011;11690;51.716;23.066;2023-02-01T15:03:47;16.93;;;5.50;;
23044;SDS011;11690;51.716;23.066;2023-02-01T15:09:25;20.40;;;5.13;;
23044;SDS011;11690;51.716;23.066;2023-02-01T15:14:25;25.03;;;5.77;;
23044;SDS011;11690;51.716;23.066;2023-02-01T15:16:54;21.20;;;5.53;;
23044;SDS011;11690;51.716;23.066;2023-02-01T15:19:22;21.70;;;5.20;;
23044;SDS011;11690;51.716;23.066;2023-02-01T15:21:52;20.87;;;5.27;;
23044;SDS011;11690;51.716;23.066;2023-02-01T15:26:49;25.63;;;5.80;;
23044;SDS011;11690;51.716;23.066;2023-02-01T15:29:18;28.43;;;7.17;;
23044;SDS011;11690;51.716;23.066;2023-02-01T15:31:50;45.00;;;17.47;;
23044;SDS011;11690;51.716;23.066;2023-02-01T15:34:19;25.93;;;9.33;;
23044;SDS011;11690;51.716;23.066;2023-02-01T15:36:46;21.57;;;7.60;;
23044;SDS011;11690;51.716;23.066;2023-02-01T15:39:28;26.43;;;6.77;;
23044;SDS011;11690;51.716;23.066;2023-02-01T15:42:00;20.50;;;5.90;;
23044;SDS011;11690;51.716;23.066;2023-02-01T15:44:47;26.97;;;7.53;;
23044;SDS011;11690;51.716;23.066;2023-02-01T15:47:15;21.67;;;6.77;;
23044;SDS011;11690;51.716;23.066;2023-02-01T15:49:45;26.73;;;7.70;;
23044;SDS011;11690;51.716;23.066;2023-02-01T15:52:24;22.90;;;6.53;;
23044;SDS011;11690;51.716;23.066;2023-02-01T15:54:55;28.07;;;7.20;;
23044;SDS011;11690;51.716;23.066;2023-02-01T15:57:29;21.13;;;7.40;;
23044;SDS011;11690;51.716;23.066;2023-02-01T15:59:59;20.30;;;6.23;;
23044;SDS011;11690;51.716;23.066;2023-02-01T16:02:42;29.93;;;11.90;;
23044;SDS011;11690;51.716;23.066;2023-02-01T16:07:58;23.00;;;6.93;;
23044;SDS011;11690;51.716;23.066;2023-02-01T16:10:31;20.70;;;5.70;;
23044;SDS011;11690;51.716;23.066;2023-02-01T16:12:59;14.47;;;5.13;;
23044;SDS011;11690;51.716;23.066;2023-02-01T16:15:27;13.97;;;4.87;;
23044;SDS011;11690;51.716;23.066;2023-02-01T16:17:56;15.63;;;3.90;;
23044;SDS011;11690;51.716;23.066;2023-02-01T16:20:23;15.73;;;4.87;;
23044;SDS011;11690;51.716;23.066;2023-02-01T16:22:50;21.67;;;5.47;;
23044;SDS011;11690;51.716;23.066;2023-02-01T16:25:18;34.23;;;10.50;;
23044;SDS011;11690;51.716;23.066;2023-02-01T16:27:45;46.57;;;13.93;;
23044;SDS011;11690;51.716;23.066;2023-02-01T16:30:12;9.63;;;3.63;;
23044;SDS011;11690;51.716;23.066;2023-02-01T16:32:40;14.87;;;4.47;;
23044;SDS011;11690;51.716;23.066;2023-02-01T16:35:13;15.47;;;5.60;;
23044;SDS011;11690;51.716;23.066;2023-02-01T16:37:45;13.27;;;4.20;;
23044;SDS011;11690;51.716;23.066;2023-02-01T16:40:16;20.67;;;5.20;;
23044;SDS011;11690;51.716;23.066;2023-02-01T16:42:45;14.83;;;3.40;;
23044;SDS011;11690;51.716;23.066;2023-02-01T16:45:13;13.77;;;5.33;;
23044;SDS011;11690;51.716;23.066;2023-02-01T16:47:42;17.17;;;6.27;;
23044;SDS011;11690;51.716;23.066;2023-02-01T16:50:15;30.73;;;14.60;;
23044;SDS011;11690;51.716;23.066;2023-02-01T16:52:50;15.80;;;4.87;;
23044;SDS011;11690;51.716;23.066;2023-02-01T16:55:19;10.87;;;3.20;;
23044;SDS011;11690;51.716;23.066;2023-02-01T16:57:51;6.67;;;2.87;;
23044;SDS011;11690;51.716;23.066;2023-02-01T17:00:18;8.00;;;2.53;;
23044;SDS011;11690;51.716;23.066;2023-02-01T17:02:52;12.77;;;3.60;;
23044;SDS011;11690;51.716;23.066;2023-02-01T17:05:19;13.73;;;3.40;;
23044;SDS011;11690;51.716;23.066;2023-02-01T17:07:48;22.93;;;5.20;;
23044;SDS011;11690;51.716;23.066;2023-02-01T17:10:24;16.00;;;6.90;;
23044;SDS011;11690;51.716;23.066;2023-02-01T17:12:59;11.00;;;3.50;;
23044;SDS011;11690;51.716;23.066;2023-02-01T17:15:27;12.17;;;4.33;;
23044;SDS011;11690;51.716;23.066;2023-02-01T17:17:58;38.50;;;12.37;;
23044;SDS011;11690;51.716;23.066;2023-02-01T17:20:28;22.90;;;7.20;;
23044;SDS011;11690;51.716;23.066;2023-02-01T17:22:59;20.10;;;6.60;;
23044;SDS011;11690;51.716;23.066;2023-02-01T17:25:26;19.93;;;5.23;;
23044;SDS011;11690;51.716;23.066;2023-02-01T17:27:57;52.80;;;31.17;;